Sun Prairie, Wisconsin
Current Conditions -  °F | °C
As of 3:53 PM on Sunday 21 Dec 2014 (Local Time) from KMSN Reporting Station
Haze Haze  
Wind Chill: 26°   Ceiling: 1300
Heat Index: 36°   Visibility: 6mi
Dew Point: 31°   Wind: 17mph
Humidity: 82%   Direction: 170°S
Pressure: 29.97"   Gusts: NA
Location:  43.18°N, 89.21°W
Report Text: KMSN 212153Z 17015KT 6SM HZ OVC013 02/M01 A2997 RMK AO2 SLP156 T00221006
Loading
Personal Weather Stations






























Interactive Weather Map New forecast layout! Learn more

10-Day Weather Forecast

Advertisements
Track Severe Weather on mobile